createdAt,value
2022-08-12T00:02:04.248Z,1.20
2022-08-12T00:04:52.796Z,0.45
2022-08-12T00:07:38.571Z,1.42
2022-08-12T00:10:24.847Z,0.40
2022-08-12T00:13:10.852Z,0.52
2022-08-12T00:15:56.949Z,1.02
2022-08-12T00:18:42.881Z,0.60
2022-08-12T00:21:30.550Z,0.52
2022-08-12T00:24:16.866Z,0.30
2022-08-12T00:27:03.021Z,0.52
2022-08-12T00:29:48.780Z,0.60
2022-08-12T00:32:35.956Z,0.80
2022-08-12T00:35:24.403Z,0.50
2022-08-12T00:38:21.186Z,0.85
2022-08-12T00:41:07.426Z,0.35
2022-08-12T00:43:36.581Z,0.60
2022-08-12T00:46:23.629Z,0.50
2022-08-12T00:48:51.589Z,0.47
2022-08-12T00:51:20.565Z,0.40
2022-08-12T00:53:48.317Z,0.30
2022-08-12T00:56:16.711Z,0.43
2022-08-12T00:58:48.397Z,0.68
2022-08-12T01:01:17.962Z,0.40
2022-08-12T01:04:07.562Z,1.13
2022-08-12T01:06:53.737Z,0.38
2022-08-12T01:09:40.138Z,0.32
2022-08-12T01:12:09.326Z,0.75
2022-08-12T01:14:37.997Z,0.32
2022-08-12T01:17:06.323Z,0.28
2022-08-12T01:19:34.476Z,0.60
2022-08-12T01:22:08.101Z,0.57
2022-08-12T01:24:57.632Z,0.47
2022-08-12T01:27:26.269Z,0.47
2022-08-12T01:29:55.075Z,0.63
2022-08-12T01:32:24.629Z,0.60
2022-08-12T01:35:04.005Z,0.60
2022-08-12T01:37:33.661Z,0.52
2022-08-12T01:40:34.042Z,0.63
2022-08-12T01:42:51.233Z,0.32
2022-08-12T01:45:25.192Z,0.80
2022-08-12T01:48:01.415Z,0.52
2022-08-12T01:50:38.783Z,0.50
2022-08-12T01:53:12.041Z,0.65
2022-08-12T01:55:42.161Z,0.40
2022-08-12T01:58:22.092Z,0.52
2022-08-12T02:01:01.980Z,0.70
2022-08-12T02:03:52.679Z,0.80
2022-08-12T02:06:45.125Z,0.73
2022-08-12T02:09:33.205Z,0.50
2022-08-12T02:12:00.708Z,0.47
2022-08-12T02:14:53.504Z,0.50
2022-08-12T02:17:55.223Z,1.40
2022-08-12T02:20:35.222Z,0.50
2022-08-12T02:23:16.877Z,0.70
2022-08-12T02:25:46.184Z,0.68
2022-08-12T02:28:13.789Z,0.60
2022-08-12T02:30:42.623Z,0.43
2022-08-12T02:33:10.936Z,0.55
2022-08-12T02:35:40.094Z,0.70
2022-08-12T02:38:09.769Z,0.40
2022-08-12T02:40:43.605Z,0.50
2022-08-12T02:43:17.101Z,0.80
2022-08-12T02:45:56.925Z,0.52
2022-08-12T02:48:30.930Z,1.08
2022-08-12T02:51:02.564Z,0.43
2022-08-12T02:53:30.132Z,0.43
2022-08-12T02:56:00.115Z,0.40
2022-08-12T02:58:32.977Z,0.70
2022-08-12T03:01:02.253Z,0.57
2022-08-12T03:03:34.330Z,1.27
2022-08-12T03:06:03.527Z,0.80
2022-08-12T03:08:35.836Z,0.52
2022-08-12T03:11:27.175Z,0.50
2022-08-12T03:13:59.105Z,0.70
2022-08-12T03:16:28.639Z,0.38
2022-08-12T03:18:56.222Z,0.73
2022-08-12T03:22:05.605Z,0.68
2022-08-12T03:24:18.077Z,0.73
2022-08-12T03:26:46.124Z,0.50
2022-08-12T03:29:13.739Z,0.50
2022-08-12T03:31:41.195Z,0.70
2022-08-12T03:34:10.150Z,0.47
2022-08-12T03:36:38.623Z,0.80
2022-08-12T03:39:16.297Z,1.00
2022-08-12T03:42:00.185Z,0.52
2022-08-12T03:45:01.365Z,0.93
2022-08-12T03:47:54.426Z,0.60
2022-08-12T03:50:40.195Z,0.40
2022-08-12T03:53:36.769Z,0.50
2022-08-12T03:56:23.151Z,0.50
2022-08-12T03:59:08.923Z,0.57
2022-08-12T04:01:40.786Z,0.47
2022-08-12T04:04:10.224Z,0.50
2022-08-12T04:06:42.465Z,0.80
2022-08-12T04:09:15.774Z,0.40
2022-08-12T04:12:03.975Z,0.60
2022-08-12T04:14:32.685Z,0.60
2022-08-12T04:17:00.887Z,0.38
2022-08-12T04:19:28.651Z,0.63
2022-08-12T04:22:01.821Z,1.05
2022-08-12T04:24:40.771Z,0.32
2022-08-12T04:27:10.583Z,0.40
2022-08-12T04:30:30.947Z,0.95
2022-08-12T04:32:27.082Z,0.32
2022-08-12T04:34:56.282Z,0.70
2022-08-12T04:37:23.949Z,0.50
2022-08-12T04:39:52.623Z,0.75
2022-08-12T04:42:20.934Z,0.70
2022-08-12T04:44:52.066Z,1.15
2022-08-12T04:47:20.396Z,0.75
2022-08-12T04:49:48.851Z,0.93
2022-08-12T04:52:16.550Z,0.45
2022-08-12T04:54:45.813Z,0.80
2022-08-12T04:57:13.525Z,0.63
2022-08-12T04:59:48.029Z,0.82
2022-08-12T05:02:20.405Z,0.50
2022-08-12T05:04:52.028Z,0.50
2022-08-12T05:07:20.429Z,1.30
2022-08-12T05:09:59.265Z,0.80
2022-08-12T05:12:31.000Z,0.65
2022-08-12T05:14:59.496Z,0.60
2022-08-12T05:17:28.138Z,0.75
2022-08-12T05:19:57.359Z,0.80
2022-08-12T05:22:31.605Z,0.68
2022-08-12T05:25:05.679Z,0.65
2022-08-12T05:27:36.190Z,0.95
2022-08-12T05:30:06.338Z,1.50
2022-08-12T05:32:37.268Z,1.17
2022-08-12T05:35:07.223Z,1.75
2022-08-12T05:37:35.515Z,2.17
2022-08-12T05:40:09.971Z,1.80
2022-08-12T05:42:38.582Z,1.85
2022-08-12T05:45:06.871Z,1.45
2022-08-12T05:47:53.746Z,1.75
2022-08-12T05:50:21.919Z,1.42
2022-08-12T05:52:49.525Z,1.85
2022-08-12T05:55:21.032Z,2.38
2022-08-12T05:57:53.476Z,3.28
2022-08-12T06:00:22.444Z,2.63
2022-08-12T06:02:50.400Z,3.47
2022-08-12T06:05:18.009Z,3.45
2022-08-12T06:08:02.359Z,2.55
2022-08-12T06:10:32.545Z,1.85
2022-08-12T06:13:04.740Z,1.30
2022-08-12T06:15:32.864Z,1.35
2022-08-12T06:18:13.152Z,1.30
2022-08-12T06:20:44.291Z,1.20
2022-08-12T06:23:12.311Z,0.70
2022-08-12T06:25:39.876Z,0.80
2022-08-12T06:28:15.387Z,0.80
2022-08-12T06:30:43.024Z,0.57
2022-08-12T06:33:21.939Z,0.70
2022-08-12T06:35:51.097Z,1.25
2022-08-12T06:38:23.421Z,0.55
2022-08-12T06:41:13.123Z,0.52
2022-08-12T06:44:06.364Z,0.57
2022-08-12T06:46:30.524Z,0.98
2022-08-12T06:48:59.670Z,0.40
2022-08-12T06:51:28.230Z,0.93
2022-08-12T06:53:58.620Z,1.40
2022-08-12T06:56:40.197Z,0.60
2022-08-12T06:59:15.376Z,0.82
2022-08-12T07:01:50.763Z,0.70
2022-08-12T07:07:10.738Z,0.80
2022-08-12T07:10:03.821Z,1.10
2022-08-12T07:12:28.586Z,0.57
2022-08-12T07:14:57.421Z,0.50
2022-08-12T07:17:25.048Z,0.70
2022-08-12T07:19:54.194Z,0.63
2022-08-12T07:22:23.820Z,0.70
2022-08-12T07:25:11.459Z,0.75
2022-08-12T07:27:44.440Z,0.50
2022-08-12T07:30:12.111Z,0.70
2022-08-12T07:32:39.690Z,1.02
2022-08-12T07:35:07.751Z,0.60
2022-08-12T07:37:41.217Z,0.52
2022-08-12T07:40:12.465Z,0.88
2022-08-12T07:42:41.006Z,0.77
2022-08-12T07:45:10.083Z,1.00
2022-08-12T07:47:39.701Z,0.93
2022-08-12T07:50:10.811Z,0.57
2022-08-12T07:52:39.361Z,1.30
2022-08-12T07:55:07.296Z,0.95
2022-08-12T07:57:35.244Z,0.90
2022-08-12T08:00:06.001Z,0.70
2022-08-12T08:02:34.421Z,1.65
2022-08-12T08:05:02.344Z,1.00
2022-08-12T08:07:31.035Z,1.10
2022-08-12T08:10:00.290Z,0.55
2022-08-12T08:12:47.247Z,0.40
2022-08-12T08:15:15.935Z,0.85
2022-08-12T08:18:03.800Z,0.60
2022-08-12T08:20:34.930Z,1.35
2022-08-12T08:23:08.353Z,0.60
2022-08-12T08:25:39.609Z,0.60
2022-08-12T08:28:11.744Z,1.10
2022-08-12T08:30:41.036Z,0.93
2022-08-12T08:33:20.137Z,0.60
2022-08-12T08:35:51.116Z,0.90
2022-08-12T08:38:31.862Z,0.70
2022-08-12T08:42:18.912Z,0.77
2022-08-12T08:44:06.776Z,0.75
2022-08-12T08:46:38.424Z,1.10
2022-08-12T08:49:06.778Z,1.10
2022-08-12T08:51:37.612Z,1.00
2022-08-12T08:54:05.832Z,0.95
2022-08-12T08:56:33.811Z,1.17
2022-08-12T08:59:01.303Z,0.80
2022-08-12T09:01:37.435Z,1.15
2022-08-12T09:05:07.460Z,0.90
2022-08-12T09:07:00.318Z,0.45
2022-08-12T09:10:02.679Z,0.75
2022-08-12T09:12:55.283Z,0.57
2022-08-12T09:18:15.117Z,0.80
2022-08-12T09:20:43.728Z,0.75
2022-08-12T09:23:59.273Z,1.10
2022-08-12T09:26:04.298Z,0.98
2022-08-12T09:32:02.708Z,1.00
2022-08-12T09:34:28.034Z,1.00
2022-08-12T09:36:58.364Z,0.80
2022-08-12T09:40:02.131Z,0.80
2022-08-12T09:42:44.033Z,1.25
2022-08-12T09:46:05.216Z,0.73
2022-08-12T09:48:20.391Z,0.80
2022-08-12T09:50:52.165Z,1.00
2022-08-12T09:53:29.419Z,0.82
2022-08-12T09:56:57.002Z,1.45
2022-08-12T09:59:00.476Z,1.17
2022-08-12T10:01:35.055Z,0.88
2022-08-12T10:04:21.516Z,0.93
2022-08-12T10:06:54.857Z,1.15
2022-08-12T10:09:28.972Z,0.88
2022-08-12T10:12:33.237Z,1.00
2022-08-12T10:15:02.703Z,1.15
2022-08-12T10:17:33.528Z,0.90
2022-08-12T10:20:01.323Z,1.02
2022-08-12T10:22:40.286Z,0.80
2022-08-12T10:26:34.604Z,0.93
2022-08-12T10:28:38.458Z,1.00
2022-08-12T10:31:16.516Z,0.90
2022-08-12T10:33:55.149Z,1.48
2022-08-12T10:36:39.920Z,1.38
2022-08-12T10:40:05.731Z,0.98
2022-08-12T10:42:28.946Z,0.88
2022-08-12T10:45:02.242Z,1.10
2022-08-12T10:48:19.386Z,1.05
2022-08-12T10:50:33.771Z,1.10
2022-08-12T10:53:19.465Z,0.68
2022-08-12T10:55:56.120Z,0.73
2022-08-12T10:58:27.976Z,1.30
2022-08-12T11:01:49.575Z,0.87
2022-08-12T11:04:22.338Z,1.27
2022-08-12T11:07:07.641Z,0.80
2022-08-12T11:09:41.775Z,1.00
2022-08-12T11:12:55.896Z,1.48
2022-08-12T11:15:20.587Z,3.38
2022-08-12T11:17:55.903Z,0.77
2022-08-12T11:20:29.034Z,0.90
2022-08-12T11:23:26.061Z,1.45
2022-08-12T11:25:57.760Z,1.42
2022-08-12T11:28:35.022Z,3.30
2022-08-12T11:31:05.941Z,2.92
2022-08-12T11:34:06.770Z,4.93
2022-08-12T11:36:21.934Z,2.28
2022-08-12T11:38:51.349Z,1.52
2022-08-12T11:41:31.477Z,1.50
2022-08-12T11:44:30.682Z,0.80
2022-08-12T11:46:51.175Z,1.23
2022-08-12T11:49:31.364Z,1.20
2022-08-12T11:52:00.853Z,0.93
2022-08-12T11:54:29.560Z,0.50
2022-08-12T11:56:59.563Z,1.30
2022-08-12T12:02:20.854Z,1.00
2022-08-12T12:04:52.762Z,0.80
2022-08-12T12:08:38.949Z,1.05
2022-08-12T12:10:16.522Z,0.80
2022-08-12T12:12:49.663Z,1.35
2022-08-12T12:15:24.742Z,1.60
2022-08-12T12:17:55.820Z,1.20
2022-08-12T12:20:25.994Z,0.90
2022-08-12T12:22:55.903Z,1.20
2022-08-12T12:25:59.404Z,1.23
2022-08-12T12:28:36.509Z,1.00
2022-08-12T12:31:04.395Z,0.90
2022-08-12T12:33:57.552Z,0.50
2022-08-12T12:36:25.283Z,1.00
2022-08-12T12:39:00.708Z,0.80
2022-08-12T12:42:41.828Z,0.73
2022-08-12T12:44:38.539Z,0.80
2022-08-12T12:47:04.811Z,0.70
2022-08-12T12:49:53.518Z,0.65
2022-08-12T12:52:21.771Z,1.00
2022-08-12T12:54:59.321Z,0.85
2022-08-12T12:57:59.493Z,1.02
2022-08-12T13:00:18.666Z,1.00
2022-08-12T13:02:53.988Z,0.90
2022-08-12T13:05:42.577Z,0.82
2022-08-12T13:08:28.401Z,0.73
2022-08-12T13:11:04.776Z,0.98
2022-08-12T13:14:10.120Z,1.15
2022-08-12T13:16:29.914Z,0.77
2022-08-12T13:18:58.443Z,1.45
2022-08-12T13:21:33.314Z,1.05
2022-08-12T13:24:10.082Z,0.93
2022-08-12T13:26:40.804Z,1.05
2022-08-12T13:29:11.494Z,1.38
2022-08-12T13:32:17.585Z,1.25
2022-08-12T13:34:34.667Z,0.68
2022-08-12T13:37:08.984Z,1.15
2022-08-12T13:39:38.140Z,2.05
2022-08-12T13:42:14.206Z,0.73
2022-08-12T13:44:42.822Z,0.68
2022-08-12T13:47:20.109Z,0.80
2022-08-12T13:49:56.252Z,0.70
2022-08-12T13:52:31.205Z,0.47
2022-08-12T13:55:01.493Z,0.80
2022-08-12T13:57:44.633Z,1.25
2022-08-12T14:00:16.646Z,1.23
2022-08-12T14:02:44.398Z,0.75
2022-08-12T14:05:31.222Z,0.75
2022-08-12T14:08:01.721Z,0.88
2022-08-12T14:10:51.194Z,0.50
2022-08-12T14:14:02.642Z,0.52
2022-08-12T14:16:10.565Z,0.85
2022-08-12T14:18:45.574Z,0.47
2022-08-12T14:21:18.213Z,0.70
2022-08-12T14:24:04.139Z,0.50
2022-08-12T14:26:33.825Z,0.80
2022-08-12T14:29:01.810Z,0.38
2022-08-12T14:31:31.942Z,0.70
2022-08-12T14:34:00.378Z,0.63
2022-08-12T14:36:32.708Z,0.50
2022-08-12T14:39:02.993Z,0.57
2022-08-12T14:41:37.332Z,0.55
2022-08-12T14:44:57.312Z,0.40
2022-08-12T14:47:07.484Z,0.35
2022-08-12T14:50:33.844Z,0.68
2022-08-12T14:52:55.607Z,0.60
2022-08-12T14:58:03.002Z,0.73
2022-08-12T15:00:52.555Z,0.32
2022-08-12T15:03:25.975Z,0.20
2022-08-12T15:06:43.540Z,1.25
2022-08-12T15:09:12.091Z,0.70
2022-08-12T15:11:54.684Z,0.55
2022-08-12T15:14:26.108Z,0.38
2022-08-12T15:16:55.311Z,0.63
2022-08-12T15:20:33.220Z,0.57
2022-08-12T15:22:37.169Z,1.63
2022-08-12T15:24:57.931Z,0.70
2022-08-12T15:27:31.737Z,0.63
2022-08-12T15:30:13.283Z,0.45
2022-08-12T15:32:40.915Z,0.80
2022-08-12T15:35:17.088Z,0.85
2022-08-12T15:38:11.181Z,0.90
2022-08-12T15:40:33.871Z,0.65
2022-08-12T15:43:04.873Z,0.80
2022-08-12T15:45:38.039Z,0.70
2022-08-12T15:48:20.328Z,0.98
2022-08-12T15:50:53.028Z,1.13
2022-08-12T15:53:41.793Z,0.75
2022-08-12T15:56:12.522Z,0.75
2022-08-12T15:58:43.614Z,0.70
2022-08-12T16:03:46.121Z,0.32
2022-08-12T16:07:03.783Z,0.63
2022-08-12T16:09:21.631Z,0.60
2022-08-12T16:11:49.432Z,0.40
2022-08-12T16:14:16.919Z,0.47
2022-08-12T16:16:48.714Z,0.75
2022-08-12T16:20:03.121Z,0.50
2022-08-12T16:22:11.327Z,0.55
2022-08-12T16:24:44.228Z,0.60
2022-08-12T16:27:11.882Z,0.50
2022-08-12T16:29:53.253Z,0.50
2022-08-12T16:32:24.605Z,0.28
2022-08-12T16:35:00.538Z,0.45
2022-08-12T16:37:32.567Z,0.32
2022-08-12T16:40:18.825Z,0.30
2022-08-12T16:42:54.012Z,0.52
2022-08-12T16:46:04.206Z,0.52
2022-08-12T16:48:34.891Z,0.85
2022-08-12T16:51:13.458Z,0.50
2022-08-12T16:53:45.536Z,0.28
2022-08-12T16:56:17.468Z,0.47
2022-08-12T16:58:48.177Z,0.30
2022-08-12T17:01:16.155Z,0.63
2022-08-12T17:03:52.581Z,0.55
2022-08-12T17:06:27.358Z,0.63
2022-08-12T17:09:03.068Z,0.60
2022-08-12T17:11:31.554Z,0.45
2022-08-12T17:14:00.132Z,0.55
2022-08-12T17:16:30.260Z,0.60
2022-08-12T17:19:03.413Z,1.08
2022-08-12T17:21:40.745Z,1.20
2022-08-12T17:24:21.510Z,0.40
2022-08-12T17:26:52.055Z,0.50
2022-08-12T17:29:32.321Z,0.40
2022-08-12T17:32:11.618Z,0.52
2022-08-12T17:35:00.405Z,0.40
2022-08-12T17:37:28.760Z,0.30
2022-08-12T17:40:15.209Z,1.38
2022-08-12T17:42:48.520Z,0.20
2022-08-12T17:45:20.857Z,0.40
2022-08-12T17:48:00.009Z,0.80
2022-08-12T17:50:30.286Z,0.77
2022-08-12T17:53:03.054Z,0.50
2022-08-12T17:55:43.501Z,0.60
2022-08-12T17:58:15.101Z,0.40
2022-08-12T18:00:44.756Z,0.22
2022-08-12T18:04:04.305Z,0.80
2022-08-12T18:06:13.850Z,0.70
2022-08-12T18:08:54.484Z,0.57
2022-08-12T18:12:05.726Z,0.30
2022-08-12T18:14:36.972Z,0.32
2022-08-12T18:17:08.848Z,0.50
2022-08-12T18:20:06.995Z,0.50
2022-08-12T18:22:30.638Z,0.65
2022-08-12T18:26:10.022Z,0.63
2022-08-12T18:28:16.976Z,0.82
2022-08-12T18:30:53.524Z,0.50
2022-08-12T18:33:26.202Z,0.55
2022-08-12T18:35:58.242Z,0.75
2022-08-12T18:38:27.498Z,0.47
2022-08-12T18:41:21.100Z,1.10
2022-08-12T18:43:58.789Z,0.73
2022-08-12T18:46:32.771Z,0.90
2022-08-12T18:51:55.255Z,0.55
2022-08-12T18:54:32.607Z,0.55
2022-08-12T18:57:04.771Z,0.73
2022-08-12T19:00:01.121Z,0.73
2022-08-12T19:02:22.938Z,0.60
2022-08-12T19:04:53.879Z,0.60
2022-08-12T19:07:23.579Z,1.15
2022-08-12T19:09:57.993Z,0.68
2022-08-12T19:12:57.288Z,0.60
2022-08-12T19:15:27.149Z,1.75
2022-08-12T19:18:02.629Z,1.50
2022-08-12T19:20:31.112Z,1.38
2022-08-12T19:23:02.419Z,0.65
2022-08-12T19:26:00.174Z,0.70
2022-08-12T19:28:30.224Z,0.40
2022-08-12T19:31:58.422Z,0.40
2022-08-12T19:37:15.071Z,0.50
2022-08-12T19:40:09.071Z,0.40
2022-08-12T19:42:33.264Z,1.00
2022-08-12T19:45:05.552Z,1.05
2022-08-12T19:47:39.710Z,0.60
2022-08-12T19:50:11.096Z,0.50
2022-08-12T19:52:41.557Z,0.57
2022-08-12T19:55:11.663Z,0.40
2022-08-12T19:58:01.906Z,0.55
2022-08-12T20:00:31.433Z,0.80
2022-08-12T20:03:03.107Z,0.45
2022-08-12T20:06:05.803Z,0.50
2022-08-12T20:08:34.205Z,0.60
2022-08-12T20:12:12.660Z,0.80
2022-08-12T20:14:00.981Z,0.52
2022-08-12T20:19:18.873Z,0.63
2022-08-12T20:21:46.404Z,0.60
2022-08-12T20:24:14.894Z,1.13
2022-08-12T20:26:43.569Z,0.57
2022-08-12T20:29:14.171Z,0.73
2022-08-12T20:31:44.104Z,0.38
2022-08-12T20:34:12.022Z,0.50
2022-08-12T20:36:44.336Z,0.70
2022-08-12T20:39:33.857Z,0.40
2022-08-12T20:42:07.024Z,0.50
2022-08-12T20:44:42.697Z,0.30
2022-08-12T20:47:19.390Z,0.40
2022-08-12T20:49:55.687Z,1.38
2022-08-12T20:52:29.817Z,0.82
2022-08-12T20:55:15.785Z,0.50
2022-08-12T20:58:02.074Z,0.50
2022-08-12T21:00:32.047Z,0.50
2022-08-12T21:03:20.549Z,1.10
2022-08-12T21:06:12.352Z,0.40
2022-08-12T21:08:41.504Z,0.30
2022-08-12T21:11:10.908Z,0.85
2022-08-12T21:13:41.669Z,0.57
2022-08-12T21:16:10.205Z,0.43
2022-08-12T21:18:38.352Z,0.55
2022-08-12T21:21:23.610Z,0.40
2022-08-12T21:23:56.477Z,0.70
2022-08-12T21:26:28.842Z,0.40
2022-08-12T21:29:01.414Z,0.57
2022-08-12T21:32:39.929Z,0.38
2022-08-12T21:34:29.096Z,0.32
2022-08-12T21:36:57.023Z,0.50
2022-08-12T21:39:30.523Z,0.63
2022-08-12T21:42:05.420Z,0.40
2022-08-12T21:45:44.056Z,0.32
2022-08-12T21:47:23.009Z,0.50
2022-08-12T21:49:55.725Z,1.02
2022-08-12T21:52:34.047Z,0.70
2022-08-12T21:57:36.493Z,0.70
2022-08-12T22:00:20.423Z,0.43
2022-08-12T22:03:07.786Z,0.77
2022-08-12T22:05:53.865Z,0.35
2022-08-12T22:08:22.394Z,0.40
2022-08-12T22:14:02.234Z,0.88
2022-08-12T22:16:15.750Z,0.68
2022-08-12T22:18:50.647Z,1.17
2022-08-12T22:21:22.048Z,0.70
2022-08-12T22:24:05.469Z,0.47
2022-08-12T22:26:37.347Z,0.63
2022-08-12T22:29:26.872Z,0.40
2022-08-12T22:31:55.641Z,0.60
2022-08-12T22:34:29.317Z,0.70
2022-08-12T22:36:57.716Z,0.43
2022-08-12T22:39:26.419Z,0.43
2022-08-12T22:42:12.397Z,0.40
2022-08-12T22:44:58.107Z,0.70
2022-08-12T22:47:53.641Z,0.80
2022-08-12T22:50:27.502Z,0.52
2022-08-12T22:53:17.649Z,0.73
2022-08-12T22:56:06.068Z,0.73
2022-08-12T22:58:40.531Z,1.00
2022-08-12T23:01:11.428Z,0.40
2022-08-12T23:03:51.081Z,0.45
2022-08-12T23:06:24.355Z,0.40
2022-08-12T23:08:52.659Z,0.55
2022-08-12T23:11:23.928Z,0.35
2022-08-12T23:14:03.517Z,0.80
2022-08-12T23:16:34.391Z,0.60
2022-08-12T23:19:10.639Z,0.40
2022-08-12T23:22:05.890Z,1.10
2022-08-12T23:24:38.413Z,0.60
2022-08-12T23:27:24.893Z,1.00
2022-08-12T23:30:18.803Z,0.88
2022-08-12T23:32:54.217Z,0.50
2022-08-12T23:35:45.616Z,0.65
2022-08-12T23:38:31.176Z,0.60
2022-08-12T23:41:00.890Z,0.30
2022-08-12T23:43:39.801Z,0.52
2022-08-12T23:46:12.312Z,1.33
2022-08-12T23:48:48.052Z,0.80
2022-08-12T23:51:22.230Z,1.05
2022-08-12T23:53:55.066Z,0.98
2022-08-12T23:56:24.374Z,0.40
2022-08-12T23:58:58.408Z,0.85
